Time;durP1;ratioP1;P1;durP2;ratioP2;P2;SDS_P1;SDS_P2;PMS_P1;PMS_P2;Temp;Humidity;BMP_temperature;BMP_pressure;BME280_temperature;BME280_humidity;BME280_pressure;Samples;Min_cycle;Max_cycle;Signal;HPM_P1;HPM_P2
2021/11/16 00:03:28;;;;;;;44.60;26.30;;;;;6.00;101975.00;;;;10420696;28;20600;-78
2021/11/16 00:08:30;;;;;;;44.33;24.30;;;;;6.00;101988.00;;;;10421673;28;20202;-78
2021/11/16 00:13:32;;;;;;;48.27;24.77;;;;;6.00;101976.00;;;;10404139;28;20230;-78
2021/11/16 00:18:35;;;;;;;49.77;25.20;;;;;6.00;101978.00;;;;10424860;28;20210;-78
2021/11/16 00:23:38;;;;;;;46.87;25.63;;;;;6.00;101973.00;;;;10407713;28;20597;-77
2021/11/16 00:28:40;;;;;;;44.17;24.37;;;;;6.00;101972.00;;;;10414272;28;20206;-78
2021/11/16 00:33:41;;;;;;;50.77;26.63;;;;;6.00;101964.00;;;;10413794;28;20684;-78
2021/11/16 00:38:44;;;;;;;45.50;25.47;;;;;6.00;101961.00;;;;10429760;28;20633;-78
2021/11/16 00:43:46;;;;;;;46.03;25.87;;;;;6.00;101952.00;;;;10429991;28;20284;-78
2021/11/16 00:48:48;;;;;;;49.60;25.30;;;;;6.00;101941.00;;;;10429783;28;20233;-78
2021/11/16 00:53:50;;;;;;;46.37;24.97;;;;;6.00;101932.00;;;;10412109;28;20633;-78
2021/11/16 00:58:52;;;;;;;49.03;26.23;;;;;6.00;101925.00;;;;10415025;28;20202;-78
2021/11/16 01:03:54;;;;;;;48.17;27.50;;;;;6.00;101920.00;;;;10455483;28;20202;-78
2021/11/16 01:08:56;;;;;;;49.17;26.10;;;;;6.00;101920.00;;;;10406641;28;20654;-78
2021/11/16 01:13:58;;;;;;;51.43;27.57;;;;;6.00;101908.00;;;;10425048;28;20222;-77
2021/11/16 01:19:01;;;;;;;55.50;25.93;;;;;6.00;101908.00;;;;10423778;28;20205;-78
2021/11/16 01:24:05;;;;;;;46.97;26.97;;;;;6.00;101907.00;;;;10437743;28;20190;-78
2021/11/16 01:29:07;;;;;;;52.03;26.60;;;;;6.00;101903.00;;;;10422521;28;20202;-77
2021/11/16 01:34:11;;;;;;;49.53;26.90;;;;;6.00;101902.00;;;;10411360;28;20585;-78
2021/11/16 01:39:12;;;;;;;55.17;27.30;;;;;6.00;101891.00;;;;10427393;28;20224;-78
2021/11/16 01:44:15;;;;;;;51.70;26.50;;;;;6.00;101904.00;;;;10386048;28;20221;-77
2021/11/16 01:49:17;;;;;;;54.07;27.37;;;;;6.00;101909.00;;;;10427593;28;20194;-78
2021/11/16 01:54:18;;;;;;;56.23;28.10;;;;;6.00;101908.00;;;;10443331;28;20589;-78
2021/11/16 01:59:21;;;;;;;51.00;25.33;;;;;6.00;101908.00;;;;10443607;28;20257;-78
2021/11/16 02:04:23;;;;;;;49.93;25.90;;;;;5.90;101893.00;;;;10442612;28;20194;-78
2021/11/16 02:09:25;;;;;;;55.23;27.47;;;;;5.90;101893.00;;;;10410206;28;20198;-77
2021/11/16 02:14:27;;;;;;;52.93;27.13;;;;;5.90;101896.00;;;;10441924;28;20226;-77
2021/11/16 02:19:29;;;;;;;49.00;25.07;;;;;5.90;101902.00;;;;10418173;28;20707;-77
2021/11/16 02:24:31;;;;;;;55.17;27.93;;;;;5.90;101894.00;;;;10411143;28;20198;-77
2021/11/16 02:29:34;;;;;;;62.60;30.40;;;;;5.90;101886.00;;;;10414625;28;20202;-77
2021/11/16 02:34:35;;;;;;;53.90;27.20;;;;;5.90;101895.00;;;;10416717;28;20233;-77
2021/11/16 02:39:38;;;;;;;56.33;27.43;;;;;5.90;101900.00;;;;10392248;28;20206;-77
2021/11/16 02:44:41;;;;;;;53.17;28.07;;;;;5.90;101898.00;;;;10434383;28;20233;-77
2021/11/16 02:49:43;;;;;;;64.60;30.73;;;;;5.90;101894.00;;;;10376428;28;20205;-78
2021/11/16 02:54:45;;;;;;;57.47;29.10;;;;;5.90;101897.00;;;;10414615;28;20218;-77
2021/11/16 02:59:48;;;;;;;55.73;29.63;;;;;5.90;101890.00;;;;10416362;28;20209;-77
2021/11/16 03:04:51;;;;;;;56.07;29.73;;;;;5.90;101888.00;;;;10424517;28;20187;-77
2021/11/16 03:09:53;;;;;;;59.70;29.53;;;;;5.90;101892.00;;;;10424085;28;20194;-77
2021/11/16 03:14:56;;;;;;;61.30;29.23;;;;;5.90;101887.00;;;;10405675;28;20226;-77
2021/11/16 03:19:58;;;;;;;60.37;29.53;;;;;5.90;101886.00;;;;10410644;28;20198;-77
2021/11/16 03:25:00;;;;;;;57.40;29.53;;;;;5.90;101895.00;;;;10403484;28;20194;-77
2021/11/16 03:30:03;;;;;;;58.93;29.57;;;;;5.90;101883.00;;;;10396835;28;20234;-78
2021/11/16 03:35:07;;;;;;;61.40;29.80;;;;;5.90;101875.00;;;;10395294;28;20214;-77
2021/11/16 03:40:10;;;;;;;61.63;30.87;;;;;5.90;101872.00;;;;10408382;28;20206;-77
2021/11/16 03:45:14;;;;;;;57.83;29.97;;;;;5.90;101874.00;;;;10424339;28;20662;-77
2021/11/16 03:50:19;;;;;;;60.17;31.83;;;;;5.90;101871.00;;;;10406315;28;20202;-77
2021/11/16 03:55:24;;;;;;;60.97;30.50;;;;;5.90;101876.00;;;;10438459;28;20222;-78
2021/11/16 04:00:29;;;;;;;64.83;31.93;;;;;5.90;101872.00;;;;10400328;28;20249;-77
2021/11/16 04:05:32;;;;;;;58.00;29.80;;;;;5.90;101871.00;;;;10422066;28;20210;-78
2021/11/16 04:10:35;;;;;;;61.77;32.47;;;;;5.80;101871.00;;;;10420607;28;20202;-77
2021/11/16 04:15:37;;;;;;;65.60;32.43;;;;;5.90;101871.00;;;;10405204;28;20218;-77
2021/11/16 04:20:42;;;;;;;66.40;32.27;;;;;5.90;101864.00;;;;10366742;28;20274;-78
2021/11/16 04:25:45;;;;;;;64.20;30.80;;;;;5.90;101865.00;;;;10405243;28;20395;-77
2021/11/16 04:30:48;;;;;;;65.77;31.90;;;;;5.90;101874.00;;;;10411301;28;20244;-77
2021/11/16 04:35:50;;;;;;;65.83;32.83;;;;;5.80;101880.00;;;;10396289;28;20209;-78
2021/11/16 04:40:54;;;;;;;69.03;32.30;;;;;5.80;101873.00;;;;10437496;28;20198;-77
2021/11/16 04:46:02;;;;;;;74.07;33.73;;;;;5.80;101876.00;;;;10437960;28;20198;-77
2021/11/16 05:06:42;;;;;;;70.33;32.60;;;;;5.80;101878.00;;;;10404876;28;20723;-78
2021/11/16 05:11:44;;;;;;;67.63;33.43;;;;;5.80;101874.00;;;;10445834;28;20269;-78
2021/11/16 05:16:47;;;;;;;78.27;35.57;;;;;5.80;101880.00;;;;10428899;28;20234;-78
2021/11/16 05:21:50;;;;;;;72.90;36.67;;;;;5.80;101885.00;;;;10423756;28;20205;-77
2021/11/16 05:26:53;;;;;;;75.97;33.57;;;;;5.80;101892.00;;;;10428119;28;20198;-77
2021/11/16 05:31:55;;;;;;;71.63;34.10;;;;;5.80;101889.00;;;;10403451;28;20221;-77
2021/11/16 05:36:57;;;;;;;75.93;34.37;;;;;5.80;101894.00;;;;10428204;28;20194;-77
2021/11/16 05:41:59;;;;;;;81.53;36.70;;;;;5.80;101893.00;;;;10412160;28;20197;-77
2021/11/16 05:47:02;;;;;;;78.60;37.17;;;;;5.80;101889.00;;;;10433380;28;20198;-77
2021/11/16 05:52:05;;;;;;;79.53;35.50;;;;;5.80;101901.00;;;;10414093;28;20225;-77
2021/11/16 05:57:07;;;;;;;75.87;34.00;;;;;5.80;101898.00;;;;10426829;28;20194;-77
2021/11/16 06:02:10;;;;;;;88.53;37.23;;;;;5.70;101899.00;;;;10410065;28;20282;-77
2021/11/16 06:07:13;;;;;;;83.17;38.80;;;;;5.70;101894.00;;;;10425897;28;20776;-77
2021/11/16 06:12:15;;;;;;;86.33;38.60;;;;;5.70;101884.00;;;;10409351;28;20250;-78
2021/11/16 06:17:20;;;;;;;80.33;36.13;;;;;5.70;101888.00;;;;10416945;28;20198;-78
2021/11/16 06:22:22;;;;;;;81.63;36.93;;;;;5.70;101886.00;;;;10406040;28;20186;-78
2021/11/16 06:27:24;;;;;;;80.83;37.47;;;;;5.70;101881.00;;;;10408285;28;20249;-77
2021/11/16 06:32:26;;;;;;;75.97;37.10;;;;;5.70;101891.00;;;;10381133;28;20230;-78
2021/11/16 06:37:28;;;;;;;83.07;37.37;;;;;5.70;101883.00;;;;10420413;28;20202;-78
2021/11/16 06:42:30;;;;;;;88.00;38.20;;;;;5.70;101888.00;;;;10421677;28;20190;-79
2021/11/16 06:47:32;;;;;;;85.00;37.43;;;;;5.70;101884.00;;;;10423293;28;20240;-77
2021/11/16 06:52:36;;;;;;;79.87;38.23;;;;;5.70;101898.00;;;;10399205;28;20222;-78
2021/11/16 06:57:38;;;;;;;85.13;36.93;;;;;5.70;101900.00;;;;10397932;28;20198;-77
2021/11/16 07:02:43;;;;;;;81.73;38.27;;;;;5.70;101897.00;;;;10379488;28;20202;-78
2021/11/16 07:07:45;;;;;;;83.20;37.03;;;;;5.70;101892.00;;;;10423392;28;20229;-77
2021/11/16 07:12:47;;;;;;;82.53;36.33;;;;;5.70;101894.00;;;;10408062;28;20233;-78
2021/11/16 07:17:49;;;;;;;84.10;36.93;;;;;5.70;101887.00;;;;10407780;28;20574;-78
2021/11/16 07:22:52;;;;;;;87.47;35.87;;;;;5.70;101900.00;;;;10440384;28;20199;-78
2021/11/16 07:27:57;;;;;;;94.40;38.30;;;;;5.70;101896.00;;;;10423751;28;20250;-77
2021/11/16 07:33:02;;;;;;;92.77;38.23;;;;;5.70;101893.00;;;;10397695;28;20230;-77
2021/11/16 07:38:15;;;;;;;92.10;39.77;;;;;5.70;101895.00;;;;10408529;28;20202;-78
2021/11/16 07:43:20;;;;;;;82.83;37.20;;;;;5.60;101899.00;;;;10407614;28;20191;-78
2021/11/16 07:48:24;;;;;;;97.77;40.57;;;;;5.70;101904.00;;;;10407429;28;20202;-78
2021/11/16 07:53:27;;;;;;;95.43;38.37;;;;;5.70;101896.00;;;;10407231;28;20959;-78
2021/11/16 07:58:34;;;;;;;88.70;38.30;;;;;5.70;101895.00;;;;10440130;28;20202;-78
2021/11/16 08:03:48;;;;;;;101.03;42.73;;;;;5.70;101904.00;;;;10391244;28;20285;-78
2021/11/16 08:08:54;;;;;;;109.77;43.63;;;;;5.70;101899.00;;;;10390991;28;20225;-78
2021/11/16 08:14:06;;;;;;;101.23;44.00;;;;;5.70;101893.00;;;;10406421;28;20229;-78
2021/11/16 08:19:10;;;;;;;98.33;39.77;;;;;5.80;101899.00;;;;10374853;28;20712;-78
2021/11/16 08:24:15;;;;;;;92.27;38.17;;;;;5.80;101891.00;;;;10455203;28;20194;-78
2021/11/16 08:29:37;;;;;;;99.70;40.20;;;;;5.80;101899.00;;;;10422650;28;20186;-78
2021/11/16 08:34:53;;;;;;;94.87;37.30;;;;;5.90;101894.00;;;;10405983;28;20225;-78
2021/11/16 08:39:58;;;;;;;99.63;40.50;;;;;5.90;101900.00;;;;10443637;28;20205;-78
2021/11/16 08:45:07;;;;;;;103.70;40.90;;;;;5.90;101893.00;;;;10430773;28;20198;-78
2021/11/16 08:50:28;;;;;;;93.90;38.47;;;;;6.00;101884.00;;;;10414830;28;20206;-78
2021/11/16 08:55:33;;;;;;;96.63;40.50;;;;;6.00;101892.00;;;;10405409;28;20214;-78
2021/11/16 09:00:44;;;;;;;98.20;40.67;;;;;6.00;101890.00;;;;10422094;28;20623;-78
2021/11/16 09:05:49;;;;;;;98.27;39.47;;;;;6.00;101885.00;;;;10413568;28;20256;-78
2021/11/16 09:11:12;;;;;;;102.37;42.53;;;;;6.10;101877.00;;;;10429645;28;20221;-78
2021/11/16 09:16:15;;;;;;;100.20;40.13;;;;;6.20;101865.00;;;;10412747;28;20225;-78
2021/11/16 09:21:24;;;;;;;101.80;40.20;;;;;6.20;101872.00;;;;10411609;28;20201;-78
2021/11/16 09:31:47;;;;;;;103.27;40.63;;;;;6.20;101870.00;;;;10428528;28;20252;-78
2021/11/16 09:37:03;;;;;;;93.93;38.63;;;;;6.30;101873.00;;;;10409269;28;20205;-78
2021/11/16 09:42:08;;;;;;;89.07;37.77;;;;;6.30;101871.00;;;;10396404;28;20198;-78
2021/11/16 09:47:27;;;;;;;90.43;38.20;;;;;6.40;101869.00;;;;10428532;28;20340;-78
2021/11/16 09:52:32;;;;;;;92.63;40.03;;;;;6.40;101870.00;;;;10428167;28;20222;-78
2021/11/16 09:57:47;;;;;;;98.97;40.30;;;;;6.30;101862.00;;;;10412530;28;20212;-78
2021/11/16 10:02:51;;;;;;;94.73;40.17;;;;;6.30;101869.00;;;;10403424;28;20254;-78
2021/11/16 10:07:59;;;;;;;93.67;37.30;;;;;6.30;101865.00;;;;10393836;28;20210;-78
2021/11/16 10:13:07;;;;;;;96.53;38.57;;;;;6.30;101851.00;;;;10452516;28;20218;-78
2021/11/16 10:18:11;;;;;;;82.87;36.73;;;;;6.40;101847.00;;;;10405370;28;20190;-78
2021/11/16 10:23:16;;;;;;;104.37;39.27;;;;;6.40;101834.00;;;;10370368;28;20254;-78
2021/11/16 10:28:19;;;;;;;90.57;37.13;;;;;6.50;101838.00;;;;10353764;28;20203;-78
2021/11/16 10:33:26;;;;;;;82.93;35.87;;;;;6.60;101833.00;;;;10393378;28;20217;-78
2021/11/16 10:38:35;;;;;;;87.77;35.63;;;;;6.70;101833.00;;;;10457234;28;20657;-78
2021/11/16 10:43:40;;;;;;;82.77;35.60;;;;;6.60;101823.00;;;;10409887;28;20600;-78
2021/11/16 10:48:42;;;;;;;95.17;36.87;;;;;6.60;101829.00;;;;10417775;28;20206;-78
2021/11/16 10:53:49;;;;;;;87.10;34.80;;;;;6.70;101833.00;;;;10424679;28;20222;-78
2021/11/16 10:58:51;;;;;;;84.13;37.03;;;;;6.70;101833.00;;;;10401690;28;20229;-78
2021/11/16 11:03:55;;;;;;;88.33;36.60;;;;;6.70;101825.00;;;;10408799;28;20191;-78
2021/11/16 11:08:58;;;;;;;83.17;35.10;;;;;6.70;101825.00;;;;10430158;28;20666;-78
2021/11/16 11:14:05;;;;;;;79.80;35.23;;;;;6.80;101816.00;;;;10408794;28;20222;-78
2021/11/16 11:19:09;;;;;;;76.83;33.43;;;;;6.80;101804.00;;;;10424042;28;20558;-78
2021/11/16 11:24:13;;;;;;;74.33;32.83;;;;;6.80;101812.00;;;;10423759;28;20649;-77
2021/11/16 11:29:45;;;;;;;75.50;33.20;;;;;6.90;101805.00;;;;10424257;28;20198;-78
2021/11/16 11:35:23;;;;;;;73.43;34.03;;;;;6.90;101796.00;;;;10407200;28;20230;-78
2021/11/16 11:40:27;;;;;;;74.57;33.43;;;;;6.90;101795.00;;;;10428976;28;20205;-78
2021/11/16 11:45:34;;;;;;;70.33;32.23;;;;;6.80;101794.00;;;;10429210;28;20194;-78
2021/11/16 11:50:43;;;;;;;67.30;29.70;;;;;6.80;101786.00;;;;10407424;28;20194;-78
2021/11/16 11:55:57;;;;;;;74.93;32.67;;;;;6.80;101790.00;;;;10404345;28;20210;-78
2021/11/16 12:01:06;;;;;;;66.43;30.67;;;;;6.80;101775.00;;;;10406314;28;20224;-78
2021/11/16 12:06:08;;;;;;;64.87;29.67;;;;;6.80;101769.00;;;;10423053;28;20198;-77
2021/11/16 12:11:12;;;;;;;74.00;32.27;;;;;6.80;101767.00;;;;10416816;28;20269;-78
2021/11/16 12:16:21;;;;;;;64.60;31.00;;;;;6.80;101770.00;;;;10412213;28;20593;-77
2021/11/16 12:21:25;;;;;;;68.47;31.30;;;;;6.80;101767.00;;;;10415699;28;20270;-78
2021/11/16 12:26:32;;;;;;;59.67;28.20;;;;;6.80;101775.00;;;;10398986;28;20202;-77
2021/11/16 12:31:34;;;;;;;54.97;26.97;;;;;6.80;101776.00;;;;10430245;28;20775;-77
2021/11/16 12:36:46;;;;;;;63.43;28.40;;;;;6.80;101763.00;;;;10446811;28;20880;-77
2021/11/16 12:42:12;;;;;;;75.93;32.30;;;;;6.60;101757.00;;;;10414819;28;20229;-78
2021/11/16 12:47:16;;;;;;;65.87;28.80;;;;;6.40;101748.00;;;;10400009;28;20203;-77
2021/11/16 12:52:22;;;;;;;61.93;29.43;;;;;6.30;101751.00;;;;10396315;28;20214;-76
2021/11/16 12:57:28;;;;;;;67.67;29.07;;;;;6.40;101739.00;;;;10397548;28;20186;-76
2021/11/16 13:02:33;;;;;;;67.67;29.63;;;;;6.40;101730.00;;;;10413312;28;20194;-77
2021/11/16 13:07:52;;;;;;;69.23;29.53;;;;;6.50;101722.00;;;;10461398;28;20661;-76
2021/11/16 13:13:04;;;;;;;68.77;30.73;;;;;6.50;101724.00;;;;10428941;28;20214;-77
2021/11/16 13:18:28;;;;;;;74.17;30.60;;;;;6.50;101712.00;;;;10386426;28;20209;-76
2021/11/16 13:23:33;;;;;;;68.87;30.27;;;;;6.50;101717.00;;;;10428383;28;20202;-77
2021/11/16 13:33:57;;;;;;;69.13;29.50;;;;;6.40;101702.00;;;;10428477;28;20226;-77
2021/11/16 13:39:11;;;;;;;61.03;28.80;;;;;6.40;101700.00;;;;10411507;28;20206;-77
2021/11/16 13:44:47;;;;;;;62.63;28.67;;;;;6.40;101696.00;;;;10427324;28;20273;-77
2021/11/16 13:49:56;;;;;;;61.00;27.97;;;;;6.30;101686.00;;;;10427189;28;20194;-77
2021/11/16 13:55:16;;;;;;;48.80;23.80;;;;;6.30;101683.00;;;;10426968;28;20218;-77
2021/11/16 14:00:31;;;;;;;56.77;24.30;;;;;6.20;101688.00;;;;10426963;28;20273;-77
2021/11/16 14:05:48;;;;;;;62.83;27.77;;;;;6.30;101671.00;;;;10426656;28;20198;-76
2021/11/16 14:10:56;;;;;;;52.03;23.57;;;;;6.20;101661.00;;;;10410834;28;20236;-77
2021/11/16 14:16:04;;;;;;;63.47;26.57;;;;;6.20;101666.00;;;;10410483;28;20214;-77
2021/11/16 14:21:11;;;;;;;59.30;25.93;;;;;6.10;101672.00;;;;10407855;28;20562;-77
2021/11/16 14:26:24;;;;;;;62.33;27.40;;;;;6.00;101677.00;;;;10426679;28;20198;-77
2021/11/16 14:31:37;;;;;;;65.07;25.23;;;;;5.80;101669.00;;;;10383987;28;20230;-77
2021/11/16 14:36:48;;;;;;;69.27;26.30;;;;;5.80;101668.00;;;;10417607;28;20218;-77
2021/11/16 14:42:02;;;;;;;69.33;27.00;;;;;5.80;101660.00;;;;10442491;28;20198;-77
2021/11/16 14:47:09;;;;;;;72.50;30.07;;;;;5.70;101670.00;;;;10387573;28;20216;-76
2021/11/16 14:52:19;;;;;;;77.57;32.60;;;;;5.70;101682.00;;;;10423213;28;20264;-77
2021/11/16 14:57:58;;;;;;;76.30;30.77;;;;;5.70;101686.00;;;;10424710;28;20202;-77
2021/11/16 15:03:03;;;;;;;74.10;30.43;;;;;5.60;101687.00;;;;10408900;28;20194;-77
2021/11/16 15:08:07;;;;;;;72.87;29.60;;;;;5.60;101676.00;;;;10392099;28;20198;-77
2021/11/16 15:13:10;;;;;;;80.40;34.17;;;;;5.60;101669.00;;;;10409304;28;20522;-76
2021/11/16 15:18:13;;;;;;;70.63;30.87;;;;;5.50;101673.00;;;;10424144;28;20198;-76
2021/11/16 15:23:27;;;;;;;89.40;37.30;;;;;5.50;101671.00;;;;10381784;28;20285;-77
2021/11/16 15:28:50;;;;;;;79.03;29.33;;;;;5.50;101675.00;;;;10423616;28;20221;-77
2021/11/16 15:33:52;;;;;;;81.83;29.93;;;;;5.50;101678.00;;;;10423592;28;20226;-77
2021/11/16 15:39:00;;;;;;;82.03;30.23;;;;;5.50;101673.00;;;;10439563;28;20198;-77
2021/11/16 15:49:24;;;;;;;80.77;30.50;;;;;5.50;101678.00;;;;10439858;28;20202;-77
2021/11/16 16:00:08;;;;;;;87.70;35.47;;;;;5.50;101681.00;;;;10406444;28;20198;-77
2021/11/16 16:05:25;;;;;;;85.20;32.40;;;;;5.50;101673.00;;;;10422285;28;20199;-77
2021/11/16 16:10:34;;;;;;;94.63;41.17;;;;;5.50;101678.00;;;;10408486;28;20205;-77
2021/11/16 16:15:44;;;;;;;81.80;34.40;;;;;5.50;101671.00;;;;10406940;28;20301;-77
2021/11/16 16:20:50;;;;;;;72.30;27.93;;;;;5.50;101668.00;;;;10423463;28;20289;-77
2021/11/16 16:25:55;;;;;;;65.40;26.07;;;;;5.50;101669.00;;;;10405964;28;20202;-77
2021/11/16 16:30:57;;;;;;;71.93;27.80;;;;;5.40;101661.00;;;;10403068;28;20237;-77
2021/11/16 16:35:59;;;;;;;73.07;26.40;;;;;5.50;101670.00;;;;10411924;28;20305;-76
2021/11/16 16:41:15;;;;;;;69.00;27.50;;;;;5.50;101678.00;;;;10414119;28;20549;-77
2021/11/16 16:46:18;;;;;;;68.20;27.10;;;;;5.60;101673.00;;;;10404925;28;20186;-77
2021/11/16 16:51:20;;;;;;;67.53;28.37;;;;;5.60;101681.00;;;;10405749;28;20194;-77
2021/11/16 16:56:27;;;;;;;75.50;29.03;;;;;5.60;101679.00;;;;10421599;28;20593;-77
2021/11/16 17:01:31;;;;;;;77.20;31.50;;;;;5.60;101681.00;;;;10406737;28;20202;-77
2021/11/16 17:06:34;;;;;;;74.20;26.27;;;;;5.50;101674.00;;;;10418854;28;20201;-76
2021/11/16 17:11:36;;;;;;;71.10;29.63;;;;;5.50;101671.00;;;;10425267;28;20198;-77
2021/11/16 17:16:38;;;;;;;81.17;28.90;;;;;5.50;101675.00;;;;10414680;28;20288;-77
2021/11/16 17:21:40;;;;;;;85.60;30.30;;;;;5.50;101666.00;;;;10442213;28;20653;-77
2021/11/16 17:26:43;;;;;;;79.77;29.03;;;;;5.50;101671.00;;;;10428180;28;20221;-77
2021/11/16 17:31:46;;;;;;;76.23;30.20;;;;;5.50;101676.00;;;;10444498;28;20236;-77
2021/11/16 17:36:50;;;;;;;87.80;31.30;;;;;5.50;101670.00;;;;10396039;28;20252;-77
2021/11/16 17:41:54;;;;;;;84.23;30.80;;;;;5.50;101672.00;;;;10428056;28;20564;-77
2021/11/16 17:46:58;;;;;;;84.33;31.07;;;;;5.50;101676.00;;;;10411456;28;20293;-76
2021/11/16 17:52:01;;;;;;;81.73;30.50;;;;;5.50;101688.00;;;;10425498;28;20214;-77
2021/11/16 17:57:04;;;;;;;94.87;34.83;;;;;5.50;101696.00;;;;10395949;28;20685;-78
2021/11/16 18:02:08;;;;;;;95.00;35.47;;;;;5.60;101689.00;;;;10400326;28;20202;-78
2021/11/16 18:12:35;;;;;;;87.10;35.03;;;;;5.60;101683.00;;;;10429978;28;20297;-78
2021/11/16 18:17:38;;;;;;;87.10;32.83;;;;;5.60;101681.00;;;;10415121;28;20241;-77
2021/11/16 18:22:40;;;;;;;74.50;30.13;;;;;5.60;101668.00;;;;10396254;28;20281;-78
2021/11/16 18:27:43;;;;;;;74.37;29.27;;;;;5.60;101672.00;;;;10405485;28;20202;-78
2021/11/16 18:32:49;;;;;;;76.50;31.43;;;;;5.60;101670.00;;;;10396657;28;20230;-77
2021/11/16 18:37:54;;;;;;;77.77;30.63;;;;;5.60;101668.00;;;;10429350;28;20217;-78
2021/11/16 18:43:02;;;;;;;69.23;27.93;;;;;5.60;101662.00;;;;10429961;28;20198;-77
2021/11/16 18:48:09;;;;;;;63.43;24.90;;;;;5.70;101657.00;;;;10407278;28;20208;-77
2021/11/16 18:53:11;;;;;;;74.53;28.10;;;;;5.70;101649.00;;;;10416234;28;20573;-78
2021/11/16 18:58:15;;;;;;;73.43;28.53;;;;;5.70;101639.00;;;;10413808;28;20205;-77
2021/11/16 19:03:20;;;;;;;79.77;30.87;;;;;5.70;101642.00;;;;10402714;28;20212;-78
2021/11/16 19:08:24;;;;;;;80.37;32.00;;;;;5.70;101644.00;;;;10429693;28;20705;-78
2021/11/16 19:13:26;;;;;;;77.30;32.00;;;;;5.70;101636.00;;;;10406673;28;20253;-78
2021/11/16 19:18:28;;;;;;;71.43;27.33;;;;;5.70;101627.00;;;;10421178;28;20609;-78
2021/11/16 19:23:31;;;;;;;68.53;27.13;;;;;5.70;101619.00;;;;10420158;28;20550;-78
2021/11/16 19:28:40;;;;;;;70.27;27.13;;;;;5.70;101615.00;;;;10385582;28;20194;-78
2021/11/16 19:34:11;;;;;;;69.07;25.97;;;;;5.70;101615.00;;;;10398987;28;20238;-78
2021/11/16 19:39:24;;;;;;;73.47;28.47;;;;;5.70;101617.00;;;;10417054;28;20658;-78
2021/11/16 19:44:28;;;;;;;69.43;28.10;;;;;5.70;101619.00;;;;10427647;28;20269;-78
2021/11/16 19:49:30;;;;;;;59.50;25.40;;;;;5.70;101615.00;;;;10420275;28;20218;-78
2021/11/16 19:54:37;;;;;;;60.77;23.90;;;;;5.70;101620.00;;;;10403280;28;20220;-78
2021/11/16 19:59:43;;;;;;;64.37;25.30;;;;;5.70;101618.00;;;;10396091;28;20285;-78
2021/11/16 20:04:48;;;;;;;79.10;27.17;;;;;5.70;101615.00;;;;10420628;28;20198;-77
2021/11/16 20:09:49;;;;;;;71.50;27.97;;;;;5.70;101629.00;;;;10398059;28;20215;-77
2021/11/16 20:14:52;;;;;;;72.07;27.27;;;;;5.80;101628.00;;;;10405356;28;20255;-78
2021/11/16 20:19:54;;;;;;;59.63;25.40;;;;;5.80;101632.00;;;;10396417;28;20218;-77
2021/11/16 20:24:56;;;;;;;67.77;25.57;;;;;5.80;101626.00;;;;10385029;28;20198;-78
2021/11/16 20:29:59;;;;;;;63.57;25.30;;;;;5.80;101618.00;;;;10402521;28;20633;-78
2021/11/16 20:35:05;;;;;;;61.00;24.47;;;;;5.80;101623.00;;;;10404267;28;20303;-78
2021/11/16 20:45:32;;;;;;;66.07;26.17;;;;;5.80;101625.00;;;;10428427;28;20312;-78
2021/11/16 21:01:16;;;;;;;65.57;25.17;;;;;5.80;101617.00;;;;10414585;28;20834;-78
2021/11/16 21:06:19;;;;;;;64.17;23.37;;;;;5.80;101609.00;;;;10426741;28;20198;-78
2021/11/16 21:11:22;;;;;;;69.30;25.13;;;;;5.80;101608.00;;;;10411083;28;20213;-78
2021/11/16 21:16:24;;;;;;;66.90;24.73;;;;;5.80;101606.00;;;;10398921;28;20987;-78
2021/11/16 21:21:28;;;;;;;68.40;25.73;;;;;5.80;101619.00;;;;10390859;28;20234;-78
2021/11/16 21:26:30;;;;;;;57.10;24.63;;;;;5.80;101603.00;;;;10409916;28;20679;-78
2021/11/16 21:31:32;;;;;;;67.93;27.87;;;;;5.80;101616.00;;;;10425780;28;20226;-78
2021/11/16 21:36:35;;;;;;;74.00;27.13;;;;;5.80;101609.00;;;;10430770;28;20991;-78
2021/11/16 21:41:37;;;;;;;68.67;25.63;;;;;5.90;101608.00;;;;10375280;28;20202;-78
2021/11/16 21:46:41;;;;;;;62.97;25.03;;;;;5.80;101612.00;;;;10425918;28;20252;-77
2021/11/16 21:51:44;;;;;;;65.33;25.10;;;;;5.90;101618.00;;;;10417219;28;20626;-79
2021/11/16 21:56:48;;;;;;;60.97;24.40;;;;;5.80;101607.00;;;;10411639;28;20748;-78
2021/11/16 22:01:51;;;;;;;63.67;23.97;;;;;5.80;101608.00;;;;10408017;28;20566;-77
2021/11/16 22:07:00;;;;;;;67.33;24.30;;;;;5.80;101601.00;;;;10409662;28;20195;-78
2021/11/16 22:12:09;;;;;;;61.30;23.07;;;;;5.80;101616.00;;;;10406815;28;20819;-78
2021/11/16 22:17:14;;;;;;;60.87;24.30;;;;;5.80;101603.00;;;;10405891;28;20236;-78
2021/11/16 22:22:16;;;;;;;65.27;24.00;;;;;5.80;101606.00;;;;10407688;28;20198;-78
2021/11/16 22:27:18;;;;;;;62.00;24.87;;;;;5.80;101613.00;;;;10405218;28;20196;-78
2021/11/16 22:32:22;;;;;;;64.33;25.07;;;;;5.80;101608.00;;;;10424197;28;20222;-79
2021/11/16 22:37:24;;;;;;;62.60;23.63;;;;;5.90;101606.00;;;;10377045;28;20214;-77
2021/11/16 22:42:28;;;;;;;66.50;26.40;;;;;5.90;101617.00;;;;10434223;28;20254;-78
2021/11/16 22:47:31;;;;;;;66.47;25.70;;;;;5.90;101623.00;;;;10406920;28;20661;-78
2021/11/16 22:52:33;;;;;;;66.90;26.30;;;;;5.90;101638.00;;;;10392777;28;20206;-78
2021/11/16 22:57:36;;;;;;;72.03;26.63;;;;;5.90;101628.00;;;;10426587;28;20211;-78
